createdAt,value
2019-02-18T00:02:33.591Z,3.40
2019-02-18T00:05:38.036Z,3.40
2019-02-18T00:08:42.475Z,3.40
2019-02-18T00:11:47.217Z,3.40
2019-02-18T00:14:51.659Z,3.30
2019-02-18T00:17:56.095Z,3.30
2019-02-18T00:21:00.527Z,3.30
2019-02-18T00:24:05.222Z,3.20
2019-02-18T00:27:10.053Z,3.20
2019-02-18T00:30:14.987Z,3.10
2019-02-18T00:33:19.432Z,3.10
2019-02-18T00:36:23.870Z,3.10
2019-02-18T00:39:28.674Z,3.10
2019-02-18T00:42:33.119Z,3.10
2019-02-18T00:45:37.940Z,3.00
2019-02-18T00:48:42.763Z,3.00
2019-02-18T00:51:47.491Z,3.00
2019-02-18T00:54:52.229Z,3.00
2019-02-18T00:57:56.675Z,2.90
2019-02-18T01:01:01.493Z,2.80
2019-02-18T01:04:06.532Z,2.80
2019-02-18T01:07:10.962Z,2.80
2019-02-18T01:10:16.198Z,2.70
2019-02-18T01:13:21.324Z,2.80
2019-02-18T01:16:25.757Z,2.90
2019-02-18T01:19:30.791Z,2.90
2019-02-18T01:22:35.226Z,2.80
2019-02-18T01:25:39.658Z,2.70
2019-02-18T01:28:44.094Z,2.70
2019-02-18T01:31:48.525Z,2.60
2019-02-18T01:34:52.958Z,2.70
2019-02-18T01:37:57.406Z,2.60
2019-02-18T01:41:02.160Z,2.60
2019-02-18T01:44:06.599Z,2.60
2019-02-18T01:47:11.316Z,2.60
2019-02-18T01:50:16.499Z,2.50
2019-02-18T01:53:21.283Z,2.40
2019-02-18T01:56:26.016Z,2.20
2019-02-18T01:59:30.461Z,2.20
2019-02-18T02:02:35.186Z,2.10
2019-02-18T02:05:39.902Z,2.10
2019-02-18T02:08:44.352Z,2.10
2019-02-18T02:11:48.780Z,2.10
2019-02-18T02:14:53.485Z,2.00
2019-02-18T02:17:57.920Z,2.00
2019-02-18T02:21:02.359Z,2.00
2019-02-18T02:24:06.798Z,1.90
2019-02-18T02:27:11.478Z,2.00
2019-02-18T02:30:16.211Z,2.10
2019-02-18T02:33:20.655Z,2.00
2019-02-18T02:36:25.089Z,2.00
2019-02-18T02:39:29.794Z,2.00
2019-02-18T02:42:34.215Z,1.90
2019-02-18T02:45:38.661Z,1.80
2019-02-18T02:48:43.094Z,1.80
2019-02-18T02:51:47.791Z,1.70
2019-02-18T02:54:52.524Z,1.70
2019-02-18T02:57:56.951Z,1.70
2019-02-18T03:01:01.676Z,1.80
2019-02-18T03:04:06.112Z,1.70
2019-02-18T03:07:10.544Z,1.70
2019-02-18T03:10:15.356Z,1.70
2019-02-18T03:13:19.784Z,1.70
2019-02-18T03:16:24.615Z,1.70
2019-02-18T03:19:29.049Z,1.70
2019-02-18T03:22:33.486Z,1.70
2019-02-18T03:25:38.303Z,1.60
2019-02-18T03:28:59.347Z,1.60
2019-02-18T03:32:04.040Z,1.60
2019-02-18T03:35:08.482Z,1.70
2019-02-18T03:38:12.898Z,1.70
2019-02-18T03:41:17.344Z,1.80
2019-02-18T03:44:21.762Z,1.80
2019-02-18T03:47:26.204Z,1.90
2019-02-18T03:50:30.888Z,1.80
2019-02-18T03:53:35.620Z,1.70
2019-02-18T03:56:40.342Z,1.80
2019-02-18T03:59:44.875Z,1.90
2019-02-18T04:02:49.607Z,1.80
2019-02-18T04:05:54.052Z,1.70
2019-02-18T04:08:58.468Z,1.60
2019-02-18T04:12:02.913Z,1.60
2019-02-18T04:15:11.109Z,1.60
2019-02-18T04:18:15.543Z,1.60
2019-02-18T04:21:20.003Z,1.60
2019-02-18T04:24:24.425Z,1.50
2019-02-18T04:27:28.868Z,1.50
2019-02-18T04:30:33.304Z,1.50
2019-02-18T04:33:37.735Z,1.50
2019-02-18T04:36:42.465Z,1.70
2019-02-18T04:39:46.895Z,1.70
2019-02-18T04:42:51.332Z,1.80
2019-02-18T04:45:56.144Z,1.80
2019-02-18T04:49:00.570Z,1.70
2019-02-18T04:52:05.009Z,1.60
2019-02-18T04:55:11.574Z,1.40
2019-02-18T04:58:16.015Z,1.30
2019-02-18T05:01:20.455Z,1.30
2019-02-18T05:04:24.882Z,1.20
2019-02-18T05:07:29.317Z,1.10
2019-02-18T05:10:33.743Z,1.10
2019-02-18T05:13:38.189Z,1.10
2019-02-18T05:16:42.933Z,1.20
2019-02-18T05:19:47.370Z,1.10
2019-02-18T05:22:52.084Z,1.10
2019-02-18T05:25:56.517Z,1.10
2019-02-18T05:29:00.956Z,1.10
2019-02-18T05:32:05.396Z,1.20
2019-02-18T05:35:09.901Z,1.10
2019-02-18T05:38:14.613Z,1.00
2019-02-18T05:41:19.051Z,1.00
2019-02-18T05:44:23.487Z,1.00
2019-02-18T05:47:27.932Z,0.90
2019-02-18T05:50:32.356Z,1.00
2019-02-18T05:53:36.798Z,0.90
2019-02-18T05:56:41.283Z,0.90
2019-02-18T05:59:46.107Z,0.90
2019-02-18T06:02:50.542Z,0.90
2019-02-18T06:05:54.991Z,0.80
2019-02-18T06:08:59.467Z,0.80
2019-02-18T06:12:03.886Z,0.80
2019-02-18T06:15:10.254Z,0.80
2019-02-18T06:18:14.699Z,0.70
2019-02-18T06:21:19.411Z,0.70
2019-02-18T06:24:23.847Z,0.70
2019-02-18T06:27:28.283Z,0.60
2019-02-18T06:30:32.722Z,0.60
2019-02-18T06:33:37.163Z,0.60
2019-02-18T06:36:41.603Z,0.70
2019-02-18T06:39:46.039Z,0.80
2019-02-18T06:42:50.480Z,1.00
2019-02-18T06:45:56.538Z,1.50
2019-02-18T06:49:02.623Z,2.00
2019-02-18T06:52:07.051Z,2.60
2019-02-18T06:55:11.489Z,3.50
2019-02-18T06:58:21.101Z,4.10
2019-02-18T07:01:29.656Z,3.90
2019-02-18T07:04:41.748Z,3.60
2019-02-18T07:07:50.554Z,3.40
2019-02-18T07:10:56.625Z,3.20
2019-02-18T07:14:01.364Z,2.90
2019-02-18T07:17:05.768Z,2.70
2019-02-18T07:20:10.278Z,2.60
2019-02-18T07:23:15.087Z,2.70
2019-02-18T07:26:19.533Z,2.70
2019-02-18T07:29:23.962Z,2.90
2019-02-18T07:32:28.706Z,3.00
2019-02-18T07:35:33.437Z,3.10
2019-02-18T07:38:38.157Z,3.30
2019-02-18T07:41:42.889Z,3.50
2019-02-18T07:44:47.619Z,3.60
2019-02-18T07:47:52.354Z,3.70
2019-02-18T07:50:57.183Z,3.80
2019-02-18T07:54:01.645Z,3.90
2019-02-18T07:57:06.065Z,4.00
2019-02-18T08:00:14.212Z,4.10
2019-02-18T08:03:18.647Z,4.10
2019-02-18T08:06:23.400Z,4.20
2019-02-18T08:09:27.850Z,4.30
2019-02-18T08:12:32.267Z,4.30
2019-02-18T08:15:36.711Z,4.50
2019-02-18T08:18:41.150Z,4.60
2019-02-18T08:21:45.577Z,4.60
2019-02-18T08:24:50.352Z,4.60
2019-02-18T08:27:55.083Z,4.70
2019-02-18T08:30:59.817Z,4.90
2019-02-18T08:34:04.254Z,4.90
2019-02-18T08:37:08.691Z,5.00
2019-02-18T08:40:21.945Z,5.10
2019-02-18T08:43:19.281Z,5.30
2019-02-18T08:46:23.977Z,5.50
2019-02-18T08:49:28.426Z,5.60
2019-02-18T08:52:32.854Z,5.70
2019-02-18T08:55:37.302Z,5.70
2019-02-18T08:58:41.722Z,5.80
2019-02-18T09:01:46.181Z,5.90
2019-02-18T09:04:50.615Z,6.10
2019-02-18T09:07:55.042Z,6.20
2019-02-18T09:10:59.481Z,6.30
2019-02-18T09:14:04.194Z,6.40
2019-02-18T09:17:08.634Z,6.50
2019-02-18T09:20:13.138Z,6.60
2019-02-18T09:23:28.160Z,6.70
2019-02-18T09:26:32.611Z,6.80
2019-02-18T09:29:37.036Z,6.90
2019-02-18T09:32:41.805Z,7.00
2019-02-18T09:35:46.252Z,7.10
2019-02-18T09:38:50.953Z,7.30
2019-02-18T09:41:55.686Z,7.40
2019-02-18T09:45:00.440Z,7.60
2019-02-18T09:48:04.844Z,7.80
2019-02-18T09:51:09.280Z,8.10
2019-02-18T09:54:13.718Z,9.30
2019-02-18T09:57:18.164Z,11.40
2019-02-18T10:00:22.609Z,13.30
2019-02-18T10:03:32.095Z,14.90
2019-02-18T10:06:33.213Z,16.00
2019-02-18T10:09:37.649Z,16.70
2019-02-18T10:12:42.393Z,17.10
2019-02-18T10:15:46.822Z,17.50
2019-02-18T10:18:51.534Z,17.60
2019-02-18T10:21:56.265Z,17.50
2019-02-18T10:25:00.775Z,17.00
2019-02-18T10:28:05.224Z,16.60
2019-02-18T10:31:09.684Z,16.40
2019-02-18T10:34:14.124Z,16.30
2019-02-18T10:37:18.893Z,16.10
2019-02-18T10:40:23.331Z,16.00
2019-02-18T10:43:32.528Z,15.80
2019-02-18T10:46:33.953Z,16.10
2019-02-18T10:49:38.622Z,16.00
2019-02-18T10:52:43.067Z,15.90
2019-02-18T10:55:47.514Z,16.00
2019-02-18T10:58:51.954Z,16.10
2019-02-18T11:01:56.409Z,16.40
2019-02-18T11:05:00.840Z,16.40
2019-02-18T11:08:05.587Z,16.30
2019-02-18T11:11:16.935Z,16.20
2019-02-18T11:14:16.794Z,16.50
2019-02-18T11:17:21.311Z,16.90
2019-02-18T11:20:25.748Z,17.10
2019-02-18T11:23:30.470Z,17.00
2019-02-18T11:26:34.910Z,17.20
2019-02-18T11:29:39.346Z,17.40
2019-02-18T11:32:43.792Z,17.80
2019-02-18T11:35:48.229Z,17.90
2019-02-18T11:38:53.299Z,18.00
2019-02-18T11:41:58.033Z,18.20
2019-02-18T11:45:02.478Z,18.50
2019-02-18T11:48:06.916Z,18.80
2019-02-18T11:51:11.609Z,18.50
2019-02-18T11:54:16.054Z,18.50
2019-02-18T11:57:20.762Z,18.00
2019-02-18T12:00:25.499Z,17.70
2019-02-18T12:03:29.940Z,17.40
2019-02-18T12:06:34.378Z,17.60
2019-02-18T12:09:40.820Z,17.80
2019-02-18T12:12:45.050Z,17.90
2019-02-18T12:15:49.487Z,17.90
2019-02-18T12:18:53.931Z,18.10
2019-02-18T12:21:58.614Z,18.70
2019-02-18T12:25:03.063Z,18.70
2019-02-18T12:28:07.505Z,18.50
2019-02-18T12:31:11.940Z,18.80
2019-02-18T12:34:16.391Z,18.70
2019-02-18T12:37:21.138Z,18.60
2019-02-18T12:40:25.575Z,18.40
2019-02-18T12:43:30.295Z,18.60
2019-02-18T12:46:35.432Z,18.80
2019-02-18T12:49:42.200Z,19.30
2019-02-18T12:52:46.647Z,19.30
2019-02-18T12:55:51.366Z,19.40
2019-02-18T12:58:55.809Z,19.70
2019-02-18T13:02:00.517Z,19.70
2019-02-18T13:05:06.981Z,19.60
2019-02-18T13:08:11.425Z,19.60
2019-02-18T13:11:15.897Z,19.60
2019-02-18T13:14:20.396Z,19.80
2019-02-18T13:17:25.096Z,19.70
2019-02-18T13:20:29.540Z,20.00
2019-02-18T13:23:33.988Z,20.40
2019-02-18T13:26:38.425Z,20.90
2019-02-18T13:29:43.203Z,21.60
2019-02-18T13:32:47.639Z,22.10
2019-02-18T13:35:52.085Z,22.70
2019-02-18T13:38:56.533Z,24.00
2019-02-18T13:42:07.278Z,24.90
2019-02-18T13:45:08.986Z,25.10
2019-02-18T13:48:13.433Z,25.80
2019-02-18T13:51:24.049Z,25.80
2019-02-18T13:54:24.042Z,25.50
2019-02-18T13:57:28.743Z,25.80
2019-02-18T14:00:33.886Z,25.90
2019-02-18T14:03:38.334Z,24.80
2019-02-18T14:06:42.776Z,24.10
2019-02-18T14:09:47.494Z,23.90
2019-02-18T14:12:52.002Z,23.50
2019-02-18T14:15:56.445Z,23.50
2019-02-18T14:19:00.894Z,23.80
2019-02-18T14:22:06.643Z,23.80
2019-02-18T14:25:11.605Z,23.40
2019-02-18T14:28:16.361Z,22.90
2019-02-18T14:31:20.803Z,23.10
2019-02-18T14:34:25.517Z,23.30
2019-02-18T14:37:29.949Z,23.30
2019-02-18T14:40:34.569Z,23.40
2019-02-18T14:43:39.035Z,23.30
2019-02-18T14:46:43.472Z,23.20
2019-02-18T14:49:47.922Z,22.80
2019-02-18T14:52:52.765Z,22.10
2019-02-18T14:55:57.217Z,21.20
2019-02-18T14:59:01.734Z,20.40
2019-02-18T15:02:06.650Z,19.00
2019-02-18T15:05:11.091Z,18.30
2019-02-18T15:08:15.809Z,17.70
2019-02-18T15:11:20.542Z,17.30
2019-02-18T15:14:24.985Z,16.80
2019-02-18T15:17:30.003Z,16.50
2019-02-18T15:20:34.452Z,16.40
2019-02-18T15:23:38.884Z,16.20
2019-02-18T15:26:43.514Z,16.10
2019-02-18T15:29:47.958Z,16.00
2019-02-18T15:32:52.431Z,15.90
2019-02-18T15:35:56.875Z,15.80
2019-02-18T15:39:01.309Z,15.80
2019-02-18T15:42:06.103Z,15.70
2019-02-18T15:45:11.085Z,15.60
2019-02-18T15:48:15.572Z,15.50
2019-02-18T15:51:20.029Z,15.40
2019-02-18T15:54:24.728Z,15.40
2019-02-18T15:57:29.203Z,15.30
2019-02-18T16:00:33.644Z,15.20
2019-02-18T16:03:38.080Z,15.20
2019-02-18T16:06:42.528Z,15.10
2019-02-18T16:09:46.988Z,15.00
2019-02-18T16:12:51.675Z,14.80
2019-02-18T16:15:56.244Z,14.60
2019-02-18T16:19:00.677Z,14.30
2019-02-18T16:22:05.117Z,14.10
2019-02-18T16:25:17.010Z,13.90
2019-02-18T16:28:21.512Z,13.70
2019-02-18T16:31:25.958Z,13.50
2019-02-18T16:34:30.394Z,13.30
2019-02-18T16:37:34.838Z,13.10
2019-02-18T16:40:39.281Z,12.80
2019-02-18T16:43:44.042Z,12.60
2019-02-18T16:46:48.445Z,12.40
2019-02-18T16:49:52.902Z,12.20
2019-02-18T16:52:57.331Z,12.00
2019-02-18T16:56:01.768Z,11.90
2019-02-18T16:59:06.206Z,11.70
2019-02-18T17:02:10.656Z,11.60
2019-02-18T17:05:15.092Z,11.50
2019-02-18T17:08:19.535Z,11.30
2019-02-18T17:11:23.983Z,11.20
2019-02-18T17:14:28.423Z,11.00
2019-02-18T17:17:32.879Z,10.90
2019-02-18T17:20:37.321Z,10.70
2019-02-18T17:23:41.772Z,10.70
2019-02-18T17:26:46.225Z,10.50
2019-02-18T17:29:50.658Z,10.40
2019-02-18T17:32:55.482Z,10.20
2019-02-18T17:35:59.920Z,10.10
2019-02-18T17:39:05.262Z,10.00
2019-02-18T17:42:10.054Z,10.00
2019-02-18T17:45:17.103Z,9.90
2019-02-18T17:48:21.538Z,9.80
2019-02-18T17:51:25.982Z,9.60
2019-02-18T17:54:30.758Z,9.50
2019-02-18T17:57:35.194Z,9.40
2019-02-18T18:00:44.013Z,9.30
2019-02-18T18:03:48.445Z,9.10
2019-02-18T18:06:53.186Z,8.90
2019-02-18T18:09:57.666Z,8.80
2019-02-18T18:13:02.111Z,8.90
2019-02-18T18:16:06.535Z,8.80
2019-02-18T18:19:11.265Z,8.80
2019-02-18T18:22:15.704Z,8.80
2019-02-18T18:25:20.130Z,8.80
2019-02-18T18:28:24.569Z,8.70
2019-02-18T18:31:29.002Z,8.50
2019-02-18T18:34:33.445Z,8.40
2019-02-18T18:37:37.882Z,8.20
2019-02-18T18:40:42.312Z,8.10
2019-02-18T18:43:46.745Z,8.10
2019-02-18T18:46:51.483Z,8.00
2019-02-18T18:49:56.625Z,7.90
2019-02-18T18:53:01.072Z,7.90
2019-02-18T18:56:05.550Z,7.70
2019-02-18T18:59:09.987Z,7.60
2019-02-18T19:02:14.414Z,7.50
2019-02-18T19:05:18.848Z,7.60
2019-02-18T19:08:23.297Z,7.60
2019-02-18T19:11:27.730Z,7.70
2019-02-18T19:14:32.293Z,7.60
2019-02-18T19:17:36.731Z,7.50
2019-02-18T19:20:41.160Z,7.50
2019-02-18T19:23:45.597Z,7.50
2019-02-18T19:26:50.029Z,7.50
2019-02-18T19:29:55.156Z,7.40
2019-02-18T19:32:59.641Z,7.20
2019-02-18T19:36:04.413Z,7.10
2019-02-18T19:39:09.234Z,7.10
2019-02-18T19:42:13.672Z,7.00
2019-02-18T19:45:23.499Z,6.80
2019-02-18T19:48:27.943Z,6.80
2019-02-18T19:51:32.376Z,6.80
2019-02-18T19:54:36.809Z,6.70
2019-02-18T19:57:41.520Z,6.70
2019-02-18T20:00:45.970Z,6.70
2019-02-18T20:03:50.393Z,6.70
2019-02-18T20:06:54.827Z,6.70
2019-02-18T20:09:59.535Z,6.70
2019-02-18T20:13:04.280Z,6.70
2019-02-18T20:16:08.690Z,6.70
2019-02-18T20:19:13.512Z,6.50
2019-02-18T20:22:17.938Z,6.50
2019-02-18T20:25:22.658Z,6.40
2019-02-18T20:28:27.090Z,6.30
2019-02-18T20:31:31.813Z,6.20
2019-02-18T20:34:36.252Z,6.10
2019-02-18T20:37:40.694Z,6.10
2019-02-18T20:40:45.389Z,6.00
2019-02-18T20:43:50.123Z,6.00
2019-02-18T20:46:54.852Z,6.00
2019-02-18T20:49:59.293Z,6.00
2019-02-18T20:53:03.723Z,6.00
2019-02-18T20:56:08.436Z,6.00
2019-02-18T20:59:12.877Z,6.10
2019-02-18T21:02:18.581Z,6.00
2019-02-18T21:05:23.068Z,5.90
2019-02-18T21:08:27.930Z,5.90
2019-02-18T21:11:32.376Z,5.80
2019-02-18T21:14:36.958Z,5.70
2019-02-18T21:17:41.564Z,5.50
2019-02-18T21:20:46.003Z,5.40
2019-02-18T21:23:50.670Z,5.50
2019-02-18T21:26:55.117Z,5.60
2019-02-18T21:29:59.858Z,5.70
2019-02-18T21:33:04.288Z,5.70
2019-02-18T21:36:09.040Z,5.60
2019-02-18T21:39:13.471Z,5.60
2019-02-18T21:42:17.978Z,5.60
2019-02-18T21:45:22.689Z,5.40
2019-02-18T21:48:27.119Z,5.40
2019-02-18T21:51:31.849Z,5.40
2019-02-18T21:54:36.580Z,5.40
2019-02-18T21:57:41.085Z,5.30
2019-02-18T22:00:45.522Z,5.20
2019-02-18T22:03:49.945Z,5.20
2019-02-18T22:06:54.781Z,5.10
2019-02-18T22:09:59.514Z,5.10
2019-02-18T22:13:04.219Z,5.00
2019-02-18T22:16:08.665Z,4.80
2019-02-18T22:19:13.096Z,5.00
2019-02-18T22:22:17.534Z,4.90
2019-02-18T22:25:21.958Z,4.90
2019-02-18T22:28:26.386Z,4.80
2019-02-18T22:31:30.827Z,4.80
2019-02-18T22:34:35.259Z,4.90
2019-02-18T22:37:40.868Z,4.90
2019-02-18T22:40:45.352Z,4.90
2019-02-18T22:43:50.117Z,4.90
2019-02-18T22:46:54.603Z,4.70
2019-02-18T22:49:59.032Z,4.60
2019-02-18T22:53:03.505Z,4.60
2019-02-18T22:56:07.924Z,4.50
2019-02-18T22:59:12.356Z,4.40
2019-02-18T23:02:16.790Z,4.40
2019-02-18T23:05:21.219Z,4.30
2019-02-18T23:08:25.722Z,4.20
2019-02-18T23:11:30.159Z,4.20
2019-02-18T23:14:34.783Z,4.20
2019-02-18T23:17:39.493Z,4.10
2019-02-18T23:20:43.919Z,4.10
2019-02-18T23:23:48.354Z,4.00
2019-02-18T23:26:53.074Z,4.00
2019-02-18T23:29:57.798Z,4.00
2019-02-18T23:33:02.532Z,3.90
2019-02-18T23:36:06.970Z,4.00
2019-02-18T23:39:11.407Z,4.10
2019-02-18T23:42:15.845Z,4.10
2019-02-18T23:45:20.277Z,4.10
2019-02-18T23:48:24.714Z,4.20
2019-02-18T23:51:29.148Z,4.20
2019-02-18T23:54:33.579Z,4.10
2019-02-18T23:57:38.024Z,4.00
